Time;durP1;ratioP1;P1;durP2;ratioP2;P2;SDS_P1;SDS_P2;PMS_P1;PMS_P2;Temp;Humidity;BMP_temperature;BMP_pressure;BME280_temperature;BME280_humidity;BME280_pressure;Samples;Min_cycle;Max_cycle;Signal;HPM_P1;HPM_P2
2022/09/22 00:01:29;;;;;;;6.45;2.17;;;8.20;99.90;;;;;;4944042;28;20035;-87
2022/09/22 00:03:55;;;;;;;;;;;8.20;99.90;;;;;;4923953;29;20047;-87
2022/09/22 00:06:33;;;;;;;6.70;1.85;;;8.20;99.90;;;;;;4929294;29;19938;-86
2022/09/22 00:09:00;;;;;;;7.60;2.25;;;8.20;99.90;;;;;;4926652;29;20043;-87
2022/09/22 00:11:32;;;;;;;5.53;2.20;;;8.10;99.90;;;;;;4927556;29;20118;-88
2022/09/22 00:14:04;;;;;;;5.97;1.55;;;8.10;99.90;;;;;;4929851;29;20040;-87
2022/09/22 00:16:37;;;;;;;6.47;2.17;;;8.10;99.90;;;;;;4914675;29;20043;-88
2022/09/22 00:19:08;;;;;;;5.57;2.25;;;8.10;99.90;;;;;;4923402;29;20082;-86
2022/09/22 00:21:34;;;;;;;5.88;2.08;;;8.50;99.90;;;;;;4951086;29;20608;-86
2022/09/22 00:24:02;;;;;;;3.65;1.63;;;8.10;99.90;;;;;;4954803;29;20039;-87
2022/09/22 00:26:30;;;;;;;4.20;1.92;;;8.00;99.90;;;;;;4947522;28;20054;-87
2022/09/22 00:28:55;;;;;;;7.28;1.80;;;8.00;99.90;;;;;;4946483;28;20042;-87
2022/09/22 00:31:23;;;;;;;6.65;1.95;;;8.00;99.90;;;;;;4942920;28;20035;-87
2022/09/22 00:33:50;;;;;;;6.97;2.10;;;8.00;99.90;;;;;;4929231;29;20036;-87
2022/09/22 00:36:17;;;;;;;4.93;2.28;;;8.00;99.90;;;;;;4917925;29;20534;-87
2022/09/22 00:38:43;;;;;;;4.40;1.63;;;7.90;99.90;;;;;;4933632;29;20182;-88
2022/09/22 00:41:27;;;;;;;6.28;1.80;;;8.00;99.90;;;;;;4929384;29;20051;-87
2022/09/22 00:44:23;;;;;;;5.78;1.80;;;8.00;99.90;;;;;;4928419;29;20118;-88
2022/09/22 00:47:12;;;;;;;2.78;1.40;;;7.90;99.90;;;;;;4947893;28;20053;-88
2022/09/22 00:49:42;;;;;;;3.67;1.65;;;7.90;99.90;;;;;;4929105;29;20047;-88
2022/09/22 00:52:10;;;;;;;3.80;1.52;;;7.90;99.90;;;;;;4933571;29;20068;-88
2022/09/22 00:54:36;;;;;;;4.32;1.52;;;7.80;99.90;;;;;;4928592;29;20408;-88
2022/09/22 00:57:09;;;;;;;4.80;1.67;;;7.80;99.90;;;;;;4926931;29;20103;-88
2022/09/22 00:59:36;;;;;;;5.68;1.65;;;7.80;99.90;;;;;;4931133;28;20079;-88
2022/09/22 01:02:01;;;;;;;3.88;1.40;;;8.30;99.90;;;;;;4928671;29;20047;-88
2022/09/22 01:04:27;;;;;;;5.85;1.75;;;7.80;99.90;;;;;;4947354;28;20043;-87
2022/09/22 01:06:57;;;;;;;7.13;1.70;;;7.80;99.90;;;;;;4944609;28;20434;-87
2022/09/22 01:09:23;;;;;;;5.43;1.80;;;7.80;99.90;;;;;;4944793;28;20518;-88
2022/09/22 01:11:48;;;;;;;4.00;1.88;;;7.80;99.90;;;;;;4943320;29;20043;-87
2022/09/22 01:14:37;;;;;;;5.32;1.67;;;7.70;99.90;;;;;;4926742;29;20388;-88
2022/09/22 01:17:21;;;;;;;4.63;1.85;;;7.70;99.90;;;;;;4946634;29;21537;-87
2022/09/22 01:20:14;;;;;;;5.05;1.70;;;7.70;99.90;;;;;;4929320;28;20057;-87
2022/09/22 01:22:46;;;;;;;3.42;1.60;;;7.70;99.90;;;;;;4927251;29;20380;-88
2022/09/22 01:25:43;;;;;;;6.90;1.50;;;7.70;99.90;;;;;;4948999;29;20082;-87
2022/09/22 01:28:23;;;;;;;3.90;1.45;;;7.70;99.90;;;;;;4926427;29;20119;-88
2022/09/22 01:31:10;;;;;;;4.57;1.77;;;7.70;99.90;;;;;;4953083;28;20054;-88
2022/09/22 01:33:42;;;;;;;3.75;1.60;;;7.60;99.90;;;;;;4946281;28;20047;-88
2022/09/22 01:36:31;;;;;;;5.43;1.38;;;7.60;99.90;;;;;;4927707;29;20096;-88
2022/09/22 01:39:10;;;;;;;5.63;1.50;;;7.60;99.90;;;;;;4918580;29;20067;-88
2022/09/22 01:41:47;;;;;;;3.33;1.45;;;7.60;99.90;;;;;;4927632;29;20054;-87
2022/09/22 01:44:32;;;;;;;4.30;1.45;;;8.00;99.90;;;;;;4919005;29;20035;-88
2022/09/22 01:47:19;;;;;;;4.50;1.48;;;7.60;99.90;;;;;;4944802;29;20035;-88
2022/09/22 01:49:53;;;;;;;4.18;2.03;;;7.60;99.90;;;;;;4946258;29;20108;-88
2022/09/22 01:52:32;;;;;;;7.00;1.95;;;7.50;99.90;;;;;;4933944;29;20035;-86
2022/09/22 01:55:07;;;;;;;4.97;1.67;;;7.60;99.90;;;;;;4940131;28;20046;-87
2022/09/22 01:57:57;;;;;;;5.32;1.75;;;7.50;99.90;;;;;;4943654;29;20043;-88
2022/09/22 02:00:23;;;;;;;3.17;1.55;;;7.50;99.90;;;;;;4926010;29;20050;-89
2022/09/22 02:03:14;;;;;;;4.13;1.83;;;7.50;99.90;;;;;;4944806;28;20042;-87
2022/09/22 02:05:51;;;;;;;3.72;1.63;;;7.50;99.90;;;;;;4928591;29;20051;-87
2022/09/22 02:08:34;;;;;;;5.30;1.40;;;7.50;99.90;;;;;;4924517;29;20518;-87
2022/09/22 02:11:08;;;;;;;5.35;1.80;;;7.40;99.90;;;;;;4926130;29;20805;-88
2022/09/22 02:13:35;;;;;;;6.10;1.80;;;7.40;99.90;;;;;;4945366;29;20062;-88
2022/09/22 02:16:02;;;;;;;7.82;2.22;;;7.40;99.90;;;;;;4926776;29;20054;-87
2022/09/22 02:18:48;;;;;;;7.10;2.20;;;7.40;99.90;;;;;;4926430;29;20048;-88
2022/09/22 02:21:14;;;;;;;6.03;1.90;;;7.40;99.90;;;;;;4925979;29;20046;-88
2022/09/22 02:23:42;;;;;;;5.55;1.60;;;7.40;99.90;;;;;;4927044;29;20122;-88
2022/09/22 02:26:09;;;;;;;6.68;2.10;;;7.30;99.90;;;;;;4929246;29;20048;-88
2022/09/22 02:28:38;;;;;;;4.65;2.00;;;8.10;99.90;;;;;;4953599;29;20318;-87
2022/09/22 02:31:06;;;;;;;3.28;1.67;;;7.30;99.90;;;;;;4935591;29;20031;-89
2022/09/22 02:33:34;;;;;;;6.63;2.22;;;7.30;99.90;;;;;;4944341;29;20051;-88
2022/09/22 02:36:14;;;;;;;4.18;2.10;;;7.30;99.90;;;;;;4926483;29;20078;-87
2022/09/22 02:38:51;;;;;;;5.05;1.75;;;7.20;99.90;;;;;;4929706;29;20047;-88
2022/09/22 02:41:30;;;;;;;5.07;1.77;;;7.20;99.90;;;;;;4928362;29;21923;-87
2022/09/22 02:44:10;;;;;;;5.22;1.70;;;7.20;99.90;;;;;;4911144;29;20091;-88
2022/09/22 02:46:46;;;;;;;5.55;1.80;;;7.20;99.90;;;;;;4925721;29;20039;-88
2022/09/22 02:49:17;;;;;;;5.47;1.50;;;8.00;99.90;;;;;;4932973;29;20670;-87
2022/09/22 02:51:47;;;;;;;3.95;1.50;;;7.20;99.90;;;;;;4925813;29;20110;-89
2022/09/22 02:54:13;;;;;;;5.60;1.65;;;7.20;99.90;;;;;;4943572;29;20039;-87
2022/09/22 02:56:41;;;;;;;6.13;1.60;;;8.00;99.90;;;;;;4925925;29;20058;-89
2022/09/22 02:59:08;;;;;;;6.43;1.73;;;7.20;99.90;;;;;;4927039;28;20050;-88
2022/09/22 03:01:34;;;;;;;4.18;1.50;;;7.20;99.90;;;;;;4923420;29;20043;-87
2022/09/22 03:04:00;;;;;;;5.70;1.70;;;7.10;99.90;;;;;;4943690;28;20043;-88
2022/09/22 03:06:26;;;;;;;3.92;1.50;;;7.10;99.90;;;;;;4940101;29;20075;-88
2022/09/22 03:08:51;;;;;;;3.90;1.58;;;7.10;99.90;;;;;;4945505;28;20630;-88
2022/09/22 03:11:17;;;;;;;7.75;1.80;;;7.10;99.90;;;;;;4925308;29;20055;-88
2022/09/22 03:13:43;;;;;;;5.63;1.95;;;7.10;99.90;;;;;;4925323;29;20735;-88
2022/09/22 03:16:08;;;;;;;3.03;1.35;;;7.00;99.90;;;;;;4944118;28;20493;-88
2022/09/22 03:18:34;;;;;;;5.28;1.63;;;7.00;99.90;;;;;;4940007;29;20053;-88
2022/09/22 03:21:00;;;;;;;3.75;1.30;;;7.00;99.90;;;;;;4943547;28;20152;-87
2022/09/22 03:23:25;;;;;;;4.10;1.35;;;7.00;99.90;;;;;;4925590;29;20039;-89
2022/09/22 03:25:51;;;;;;;5.57;1.83;;;6.90;99.90;;;;;;4926254;29;20048;-89
2022/09/22 03:28:17;;;;;;;3.50;1.60;;;6.90;99.90;;;;;;4941281;29;20039;-89
2022/09/22 03:30:43;;;;;;;4.68;1.58;;;6.90;99.90;;;;;;4929758;29;20039;-89
2022/09/22 03:33:08;;;;;;;4.72;1.58;;;6.90;99.90;;;;;;4928892;29;20035;-88
2022/09/22 03:35:34;;;;;;;4.60;1.83;;;6.90;99.90;;;;;;4926338;29;20059;-89
2022/09/22 03:38:00;;;;;;;3.42;1.35;;;6.90;99.90;;;;;;4932040;29;20052;-89
2022/09/22 03:40:26;;;;;;;4.93;1.70;;;6.80;99.90;;;;;;4928412;29;20052;-89
2022/09/22 03:42:51;;;;;;;5.13;1.70;;;6.80;99.90;;;;;;4922575;28;20051;-88
2022/09/22 03:45:17;;;;;;;6.10;1.45;;;6.80;99.90;;;;;;4930201;29;20043;-88
2022/09/22 03:47:43;;;;;;;5.10;1.48;;;7.50;99.90;;;;;;4932844;29;20163;-88
2022/09/22 03:50:09;;;;;;;6.95;1.52;;;6.80;99.90;;;;;;4950921;29;20050;-90
2022/09/22 03:52:35;;;;;;;6.07;1.60;;;6.80;99.90;;;;;;4954979;28;20038;-88
2022/09/22 03:55:01;;;;;;;5.32;1.63;;;6.80;99.90;;;;;;4949949;29;20035;-89
2022/09/22 03:57:28;;;;;;;5.47;1.80;;;6.70;99.90;;;;;;4929859;28;20047;-89
2022/09/22 03:59:53;;;;;;;4.53;1.38;;;6.70;99.90;;;;;;4914493;29;20058;-88
2022/09/22 04:02:19;;;;;;;4.03;1.30;;;6.70;99.90;;;;;;4928196;29;20040;-88
2022/09/22 04:04:44;;;;;;;5.40;1.60;;;6.70;99.90;;;;;;4928936;29;20046;-88
2022/09/22 04:07:10;;;;;;;5.65;1.50;;;6.70;99.90;;;;;;4928502;29;20103;-88
2022/09/22 04:09:36;;;;;;;5.35;1.60;;;6.70;99.90;;;;;;4946718;28;20039;-89
2022/09/22 04:12:02;;;;;;;3.72;1.48;;;6.60;99.90;;;;;;4931551;29;20035;-89
2022/09/22 04:14:27;;;;;;;5.03;1.60;;;6.60;99.90;;;;;;4951754;29;20134;-89
2022/09/22 04:16:53;;;;;;;4.10;1.48;;;6.60;99.90;;;;;;4928495;29;20266;-89
2022/09/22 04:19:19;;;;;;;6.10;1.40;;;6.60;99.90;;;;;;4929187;29;20069;-88
2022/09/22 04:21:44;;;;;;;4.40;1.45;;;6.60;99.90;;;;;;4931986;28;20042;-88
2022/09/22 04:24:10;;;;;;;3.15;1.40;;;6.60;99.90;;;;;;4935959;29;20043;-89
2022/09/22 04:26:37;;;;;;;4.15;1.30;;;7.20;99.90;;;;;;4930961;28;20071;-89
2022/09/22 04:29:03;;;;;;;3.10;1.27;;;6.60;99.90;;;;;;4927005;29;20488;-87
2022/09/22 04:31:29;;;;;;;3.85;1.33;;;6.60;99.90;;;;;;4927770;29;20057;-88
2022/09/22 04:33:55;;;;;;;2.08;1.13;;;6.50;99.90;;;;;;4929273;29;20049;-88
2022/09/22 04:36:20;;;;;;;4.53;1.55;;;6.50;99.90;;;;;;4946940;28;20050;-89
2022/09/22 04:38:46;;;;;;;5.35;1.52;;;6.50;99.90;;;;;;4929899;29;20039;-89
2022/09/22 04:41:12;;;;;;;5.70;1.50;;;6.50;99.90;;;;;;4928335;29;20039;-89
2022/09/22 04:43:38;;;;;;;3.78;1.17;;;6.50;99.90;;;;;;4928701;29;20054;-89
2022/09/22 04:46:04;;;;;;;4.50;1.50;;;6.40;99.90;;;;;;4946487;28;20047;-89
2022/09/22 04:48:30;;;;;;;4.70;1.38;;;6.40;99.90;;;;;;4924764;29;20043;-88
2022/09/22 04:50:56;;;;;;;3.55;1.45;;;6.40;99.90;;;;;;4914369;29;20051;-90
2022/09/22 04:53:21;;;;;;;5.95;1.95;;;6.40;99.90;;;;;;4930859;29;20032;-88
2022/09/22 04:55:49;;;;;;;6.47;2.15;;;6.30;99.90;;;;;;4917997;29;20043;-90
2022/09/22 04:58:15;;;;;;;6.60;1.35;;;6.30;99.90;;;;;;4922898;29;20058;-89
2022/09/22 05:00:40;;;;;;;5.38;1.58;;;6.30;99.90;;;;;;4937128;28;20047;-91
2022/09/22 05:03:08;;;;;;;5.90;1.70;;;6.30;99.90;;;;;;4920607;29;20407;-89
2022/09/22 05:05:34;;;;;;;5.38;1.80;;;6.30;99.90;;;;;;4931804;29;20512;-90
2022/09/22 05:08:00;;;;;;;4.88;1.95;;;6.20;99.90;;;;;;4937430;29;20054;-88
2022/09/22 05:10:29;;;;;;;5.90;1.90;;;6.20;99.90;;;;;;4952314;28;20663;-89
2022/09/22 05:12:55;;;;;;;5.07;1.70;;;6.20;99.90;;;;;;4932840;29;20051;-89
2022/09/22 05:15:21;;;;;;;5.47;1.73;;;6.20;99.90;;;;;;4949037;28;20043;-89
2022/09/22 05:17:49;;;;;;;5.03;1.77;;;6.20;99.90;;;;;;4932169;28;20035;-89
2022/09/22 05:20:15;;;;;;;3.50;2.10;;;6.10;99.90;;;;;;4930659;29;20051;-86
2022/09/22 05:22:42;;;;;;;3.63;1.77;;;6.20;99.90;;;;;;4922863;29;20051;-88
2022/09/22 05:25:12;;;;;;;5.25;2.00;;;6.20;99.90;;;;;;4956590;28;20079;-88
2022/09/22 05:27:52;;;;;;;5.22;2.22;;;6.90;99.90;;;;;;4924969;29;20118;-88
2022/09/22 05:30:20;;;;;;;6.80;2.33;;;6.10;99.90;;;;;;4930468;29;20063;-88
2022/09/22 05:32:47;;;;;;;7.40;2.30;;;6.10;99.90;;;;;;4927643;29;20054;-87
2022/09/22 05:35:15;;;;;;;4.80;2.30;;;6.10;99.90;;;;;;4923780;29;20035;-88
2022/09/22 05:37:45;;;;;;;7.35;2.08;;;6.10;99.90;;;;;;4949013;29;20044;-88
2022/09/22 05:40:11;;;;;;;5.38;2.67;;;6.10;99.90;;;;;;4933503;29;20042;-88
2022/09/22 05:42:48;;;;;;;6.18;2.35;;;6.10;99.90;;;;;;4915633;29;20035;-88
2022/09/22 05:45:15;;;;;;;7.53;2.58;;;6.10;99.90;;;;;;4952405;28;20043;-89
2022/09/22 05:47:42;;;;;;;6.75;2.70;;;6.90;99.90;;;;;;4928623;29;20035;-88
2022/09/22 05:50:09;;;;;;;7.90;2.72;;;6.80;99.90;;;;;;4949590;28;20795;-88
2022/09/22 05:52:35;;;;;;;4.82;2.40;;;6.10;99.90;;;;;;4939110;29;20039;-87
2022/09/22 05:55:01;;;;;;;6.40;2.38;;;6.10;99.90;;;;;;4954792;28;20074;-86
2022/09/22 05:57:26;;;;;;;9.20;2.97;;;6.10;99.90;;;;;;4945991;29;20118;-88
2022/09/22 05:59:53;;;;;;;8.55;3.10;;;6.10;99.90;;;;;;4916762;29;20038;-87
2022/09/22 06:02:19;;;;;;;6.20;2.83;;;6.10;99.90;;;;;;4949844;28;20063;-88
2022/09/22 06:04:45;;;;;;;6.03;3.08;;;6.20;99.90;;;;;;4932148;29;20035;-88
2022/09/22 06:07:10;;;;;;;7.90;3.20;;;6.20;99.90;;;;;;4931685;28;20128;-87
2022/09/22 06:09:36;;;;;;;8.32;3.20;;;6.20;99.90;;;;;;4931145;29;20047;-89
2022/09/22 06:12:02;;;;;;;6.13;3.00;;;6.20;99.90;;;;;;4956766;28;20039;-89
2022/09/22 06:14:28;;;;;;;5.35;2.80;;;6.20;99.90;;;;;;4940461;29;20035;-90
2022/09/22 06:16:54;;;;;;;7.55;3.42;;;6.30;99.90;;;;;;4940229;29;20058;-89
2022/09/22 06:19:22;;;;;;;7.50;3.30;;;6.30;99.90;;;;;;4942768;29;20047;-90
2022/09/22 06:21:49;;;;;;;8.93;3.97;;;6.30;99.90;;;;;;4956324;28;20566;-90
2022/09/22 06:24:15;;;;;;;8.52;3.47;;;6.30;99.90;;;;;;4933615;29;20043;-89
2022/09/22 06:26:41;;;;;;;8.80;5.80;;;6.30;99.90;;;;;;4939144;29;20058;-89
2022/09/22 06:29:07;;;;;;;13.50;7.20;;;6.40;99.90;;;;;;4959065;28;20047;-89
2022/09/22 06:31:32;;;;;;;13.23;8.20;;;6.40;99.90;;;;;;4961413;28;20048;-89
2022/09/22 06:33:58;;;;;;;13.32;8.38;;;6.50;99.90;;;;;;4934849;29;20035;-89
2022/09/22 06:36:30;;;;;;;13.82;7.80;;;7.10;99.90;;;;;;4956220;28;20066;-89
2022/09/22 06:39:00;;;;;;;12.18;8.27;;;7.10;99.90;;;;;;4945274;28;20511;-90
2022/09/22 06:41:31;;;;;;;11.88;8.02;;;7.20;99.90;;;;;;4946034;28;20062;-91
2022/09/22 06:43:56;;;;;;;14.70;8.48;;;6.80;99.90;;;;;;4925871;29;20039;-91
2022/09/22 06:46:26;;;;;;;13.40;7.68;;;6.80;99.90;;;;;;4929544;29;20396;-93
2022/09/22 06:48:56;;;;;;;17.83;8.88;;;6.90;99.90;;;;;;4941331;28;20043;-90
2022/09/22 06:51:33;;;;;;;13.38;9.20;;;7.00;99.90;;;;;;4936655;28;20040;-88
2022/09/22 06:54:02;;;;;;;13.18;8.70;;;7.00;99.90;;;;;;4922300;29;20848;-88
2022/09/22 06:56:33;;;;;;;12.82;8.77;;;7.10;99.90;;;;;;4927104;29;20443;-89
2022/09/22 06:58:59;;;;;;;17.58;9.15;;;7.20;99.90;;;;;;4938486;29;20498;-90
2022/09/22 07:01:27;;;;;;;16.85;10.38;;;7.30;99.90;;;;;;4939008;28;20058;-88
2022/09/22 07:03:53;;;;;;;19.77;9.88;;;7.30;99.90;;;;;;4938540;28;20066;-88
2022/09/22 07:06:19;;;;;;;13.77;10.43;;;7.40;99.90;;;;;;4920451;29;20130;-88
2022/09/22 07:08:46;;;;;;;15.63;10.52;;;7.40;99.90;;;;;;4921215;29;20186;-88
2022/09/22 07:11:14;;;;;;;17.77;10.25;;;7.50;99.90;;;;;;4938148;28;20126;-89
2022/09/22 07:13:41;;;;;;;19.35;10.93;;;7.60;99.90;;;;;;4923952;29;20043;-89
2022/09/22 07:16:09;;;;;;;18.02;11.13;;;7.60;99.90;;;;;;4926454;29;20039;-90
2022/09/22 07:18:39;;;;;;;17.77;11.13;;;7.70;99.90;;;;;;4943679;28;20058;-89
2022/09/22 07:21:10;;;;;;;17.67;11.40;;;7.80;99.90;;;;;;4919632;28;20049;-89
2022/09/22 07:23:36;;;;;;;17.33;11.38;;;7.90;99.90;;;;;;4938624;29;20075;-88
2022/09/22 07:26:08;;;;;;;17.70;11.65;;;7.90;99.90;;;;;;4937242;29;20039;-89
2022/09/22 07:28:35;;;;;;;18.67;11.88;;;8.00;99.90;;;;;;4943213;29;20053;-89
2022/09/22 07:31:04;;;;;;;15.55;11.25;;;8.10;99.90;;;;;;4923024;29;20114;-89
2022/09/22 07:33:33;;;;;;;20.75;12.43;;;8.10;99.90;;;;;;4942448;29;20051;-88
2022/09/22 07:36:01;;;;;;;20.98;11.30;;;8.70;99.90;;;;;;4942506;28;20452;-90
2022/09/22 07:38:32;;;;;;;16.00;11.77;;;8.30;99.90;;;;;;4953801;28;20031;-95
2022/09/22 07:40:59;;;;;;;20.88;11.48;;;8.40;99.90;;;;;;4933301;29;20035;-87
2022/09/22 07:43:27;;;;;;;16.42;9.05;;;8.50;99.90;;;;;;4947938;28;20044;-88
2022/09/22 07:45:56;;;;;;;16.23;9.82;;;8.70;99.90;;;;;;4926939;29;20051;-88
2022/09/22 07:48:35;;;;;;;16.13;10.55;;;8.80;99.90;;;;;;4922764;29;20035;-88
2022/09/22 07:51:12;;;;;;;14.13;8.85;;;8.90;99.90;;;;;;4922301;29;20058;-88
2022/09/22 07:53:39;;;;;;;15.63;9.20;;;9.10;99.90;;;;;;4939890;28;20036;-88
2022/09/22 07:56:13;;;;;;;11.52;8.70;;;9.70;99.90;;;;;;4930974;29;20134;-88
2022/09/22 07:58:50;;;;;;;14.10;8.38;;;9.30;99.90;;;;;;4927197;29;20126;-88
2022/09/22 08:01:16;;;;;;;13.02;8.23;;;10.10;99.90;;;;;;4940185;28;20536;-87
2022/09/22 08:03:44;;;;;;;13.13;8.20;;;9.60;99.90;;;;;;4947682;28;20407;-87
2022/09/22 08:06:10;;;;;;;14.45;8.55;;;9.70;99.90;;;;;;4929525;29;20751;-90
2022/09/22 08:08:42;;;;;;;11.40;8.13;;;9.70;99.90;;;;;;4938204;28;20059;-89
2022/09/22 08:11:14;;;;;;;14.85;9.05;;;9.80;99.90;;;;;;4927185;29;20043;-91
2022/09/22 08:13:42;;;;;;;11.90;7.95;;;9.90;99.90;;;;;;4944645;29;20044;-86
2022/09/22 08:16:10;;;;;;;11.00;8.00;;;10.00;99.90;;;;;;4948177;28;20096;-92
2022/09/22 08:18:36;;;;;;;11.15;8.32;;;10.10;99.90;;;;;;4950410;29;20048;-94
2022/09/22 08:21:03;;;;;;;10.38;7.82;;;10.20;99.90;;;;;;4956785;29;20079;-93
2022/09/22 08:23:30;;;;;;;12.40;7.72;;;10.30;99.90;;;;;;4944650;28;20039;-93
2022/09/22 08:25:56;;;;;;;11.93;7.63;;;10.80;99.90;;;;;;4952256;28;20047;-92
2022/09/22 08:28:22;;;;;;;10.57;7.03;;;10.50;99.90;;;;;;4950857;29;20625;-93
2022/09/22 08:30:47;;;;;;;11.50;6.93;;;10.60;99.90;;;;;;4953999;29;20120;-94
2022/09/22 08:33:13;;;;;;;17.23;7.53;;;10.70;99.90;;;;;;4941296;29;20047;-93
2022/09/22 08:36:02;;;;;;;10.75;6.80;;;10.80;99.90;;;;;;4950224;28;20066;-93
2022/09/22 08:38:32;;;;;;;15.65;6.55;;;11.40;99.90;;;;;;4931093;29;20055;-93
2022/09/22 08:41:05;;;;;;;9.88;6.50;;;10.90;99.90;;;;;;4945952;28;20036;-93
2022/09/22 08:43:32;;;;;;;11.45;6.95;;;11.10;99.90;;;;;;4954860;28;20049;-92
2022/09/22 08:46:01;;;;;;;11.25;6.15;;;11.10;99.90;;;;;;4934766;29;20122;-93
2022/09/22 08:54:03;;;;;;;10.77;5.13;;;11.40;99.90;;;;;;4956843;29;19919;-93
2022/09/22 08:56:39;;;;;;;6.38;4.10;;;11.50;99.90;;;;;;4951997;28;20051;-93
2022/09/22 08:59:21;;;;;;;6.97;4.40;;;11.80;99.90;;;;;;4946383;29;20110;-94
2022/09/22 09:01:53;;;;;;;11.15;4.03;;;11.70;99.90;;;;;;4953355;28;20050;-93
2022/09/22 09:04:46;;;;;;;8.40;3.40;;;11.80;99.90;;;;;;4936517;29;20043;-92
2022/09/22 09:07:34;;;;;;;7.45;3.10;;;11.90;99.90;;;;;;4952830;28;20043;-92
2022/09/22 09:10:25;;;;;;;7.18;2.95;;;12.10;99.90;;;;;;4945439;29;20059;-93
2022/09/22 09:13:21;;;;;;;6.45;2.63;;;12.30;99.90;;;;;;4950588;29;20044;-93
2022/09/22 09:16:12;;;;;;;7.35;2.72;;;12.50;99.90;;;;;;4949678;28;20051;-93
2022/09/22 09:18:43;;;;;;;6.00;2.15;;;12.80;99.90;;;;;;4949384;29;20076;-93
2022/09/22 09:21:13;;;;;;;9.45;4.05;;;13.00;99.90;;;;;;4948812;28;20051;-95
2022/09/22 09:23:45;;;;;;;7.22;2.30;;;13.30;99.90;;;;;;4929793;29;20055;-93
2022/09/22 09:26:13;;;;;;;8.45;2.70;;;13.50;99.90;;;;;;4946780;28;20067;-92
2022/09/22 09:28:48;;;;;;;7.97;2.10;;;13.70;99.90;;;;;;4946048;29;20068;-92
2022/09/22 09:31:46;;;;;;;6.05;2.17;;;13.80;99.90;;;;;;4942592;29;20043;-93
2022/09/22 09:34:17;;;;;;;6.43;2.63;;;14.10;99.90;;;;;;4943742;29;20063;-93
2022/09/22 09:36:50;;;;;;;7.10;2.78;;;14.20;99.90;;;;;;4916911;28;1076653;-94
2022/09/22 09:39:29;;;;;;;6.07;2.65;;;14.80;99.90;;;;;;4949895;28;20048;-95
2022/09/22 09:41:56;;;;;;;7.93;2.42;;;14.50;99.90;;;;;;4947185;28;20163;-93
2022/09/22 09:44:26;;;;;;;5.20;2.50;;;14.70;99.90;;;;;;4949966;29;20130;-94
2022/09/22 09:47:10;;;;;;;6.60;2.90;;;15.20;99.90;;;;;;4944211;29;20130;-94
2022/09/22 09:49:36;;;;;;;6.18;2.33;;;14.90;99.90;;;;;;4948563;28;20039;-93
2022/09/22 09:52:08;;;;;;;7.93;2.78;;;15.10;99.90;;;;;;4943859;29;20691;-94
2022/09/22 09:54:36;;;;;;;5.72;2.92;;;15.20;99.90;;;;;;4951314;28;20035;-93
2022/09/22 09:57:15;;;;;;;6.10;2.70;;;15.30;99.90;;;;;;4935700;29;20043;-94
2022/09/22 10:03:13;;;;;;;7.38;2.17;;;15.60;99.90;;;;;;4959459;29;20114;-96
2022/09/22 10:05:39;;;;;;;5.80;2.33;;;15.70;99.90;;;;;;4947224;28;20052;-92
2022/09/22 10:08:25;;;;;;;8.43;2.65;;;15.90;99.90;;;;;;4939700;28;20053;-92
2022/09/22 10:10:58;;;;;;;7.25;2.75;;;16.00;99.90;;;;;;4944390;28;20050;-93
2022/09/22 10:13:29;;;;;;;7.35;2.80;;;16.10;99.90;;;;;;4946040;28;20074;-91
2022/09/22 10:16:17;;;;;;;5.57;2.33;;;16.20;99.90;;;;;;4946350;28;20086;-93
2022/09/22 10:18:43;;;;;;;7.00;2.67;;;16.30;99.90;;;;;;4939590;28;20436;-92
2022/09/22 10:21:20;;;;;;;7.82;2.97;;;16.40;99.90;;;;;;4949191;28;20148;-91
2022/09/22 10:23:53;;;;;;;9.60;2.53;;;16.50;99.90;;;;;;4943770;29;20046;-91
2022/09/22 10:26:31;;;;;;;8.67;2.57;;;16.60;99.90;;;;;;4933052;29;20519;-91
2022/09/22 10:29:11;;;;;;;5.05;2.60;;;16.80;99.90;;;;;;4948830;28;20039;-94
2022/09/22 10:31:38;;;;;;;6.00;2.70;;;16.90;99.90;;;;;;4954466;28;20039;-94
2022/09/22 10:34:05;;;;;;;8.80;2.40;;;17.00;99.90;;;;;;4956362;29;20043;-96
2022/09/22 10:36:34;;;;;;;7.55;2.80;;;17.10;99.80;;;;;;4956803;28;20079;-93
2022/09/22 10:39:00;;;;;;;7.90;3.08;;;17.10;99.90;;;;;;4942231;29;20046;-96
2022/09/22 10:41:32;;;;;;;10.05;3.70;;;17.20;99.90;;;;;;4960267;28;20034;-96
2022/09/22 10:44:13;;;;;;;7.90;3.22;;;17.30;99.20;;;;;;4955810;28;20131;-96
2022/09/22 10:46:57;;;;;;;8.50;3.05;;;17.50;98.70;;;;;;4937425;29;20043;-94
2022/09/22 10:49:59;;;;;;;9.30;3.43;;;17.60;98.60;;;;;;4949552;29;20043;-95
2022/09/22 10:52:46;;;;;;;6.25;2.83;;;17.60;98.30;;;;;;4935067;29;20047;-95
2022/09/22 10:55:34;;;;;;;7.43;3.10;;;17.50;98.20;;;;;;4942496;29;20075;-94
2022/09/22 10:58:24;;;;;;;9.88;3.03;;;17.60;98.20;;;;;;4955095;29;20555;-93
2022/09/22 11:01:00;;;;;;;8.57;3.35;;;17.60;97.20;;;;;;4950813;28;20043;-93
2022/09/22 11:03:53;;;;;;;11.25;3.30;;;17.60;96.50;;;;;;4931645;29;20124;-89
2022/09/22 11:12:33;;;;;;;7.88;4.15;;;17.80;97.00;;;;;;4946550;29;20039;-90
2022/09/22 11:15:04;;;;;;;8.25;4.40;;;18.00;96.60;;;;;;4945364;29;20047;-89
2022/09/22 11:17:45;;;;;;;7.13;3.53;;;18.20;97.20;;;;;;4942589;29;20043;-89
2022/09/22 11:20:38;;;;;;;8.15;3.40;;;18.30;97.00;;;;;;4943505;29;20086;-89
2022/09/22 11:23:32;;;;;;;8.20;3.80;;;18.50;96.00;;;;;;4936143;28;20043;-89
2022/09/22 11:26:17;;;;;;;7.97;3.15;;;18.70;95.00;;;;;;4946773;29;20121;-89
2022/09/22 11:28:52;;;;;;;;;;;18.90;96.10;;;;;;4951330;29;20043;-89
2022/09/22 11:31:48;;;;;;;5.35;3.42;;;18.90;95.50;;;;;;4930804;29;20381;-89
2022/09/22 11:34:46;;;;;;;8.73;3.40;;;19.10;93.60;;;;;;4900689;29;20207;-89
2022/09/22 11:37:27;;;;;;;6.93;3.17;;;19.10;94.10;;;;;;4861434;29;20056;-89
2022/09/22 11:40:31;;;;;;;10.73;3.95;;;18.90;94.90;;;;;;4888702;29;20048;-88
2022/09/22 11:43:18;;;;;;;9.10;3.55;;;18.70;94.00;;;;;;4881938;29;20052;-88
2022/09/22 11:45:52;;;;;;;8.02;3.42;;;18.40;94.20;;;;;;4903043;29;20123;-88
2022/09/22 11:48:27;;;;;;;8.82;3.45;;;18.30;94.70;;;;;;4899144;29;20037;-89
2022/09/22 11:51:21;;;;;;;9.02;3.38;;;18.30;94.90;;;;;;4885023;29;20051;-89
2022/09/22 11:54:13;;;;;;;5.22;3.13;;;18.30;93.50;;;;;;4899728;29;20126;-88
2022/09/22 11:56:45;;;;;;;5.95;3.25;;;18.50;94.10;;;;;;4898973;29;20084;-89
2022/09/22 11:59:42;;;;;;;7.65;3.22;;;18.50;94.30;;;;;;4889609;29;20060;-88
2022/09/22 12:02:19;;;;;;;8.82;2.85;;;18.70;93.30;;;;;;4892195;29;20037;-88
2022/09/22 12:05:05;;;;;;;6.35;2.70;;;18.80;93.60;;;;;;4902381;29;20151;-88
2022/09/22 12:07:38;;;;;;;8.00;3.70;;;18.80;92.70;;;;;;4900962;29;20092;-89
2022/09/22 12:10:12;;;;;;;6.50;3.47;;;19.00;93.00;;;;;;4906243;29;20040;-89
2022/09/22 12:12:42;;;;;;;7.30;2.92;;;19.20;93.30;;;;;;4936920;29;20054;-90
2022/09/22 12:15:28;;;;;;;5.80;3.20;;;19.20;93.30;;;;;;4940254;29;20039;-89
2022/09/22 12:18:08;;;;;;;6.68;2.97;;;19.20;93.00;;;;;;4950867;29;20069;-91
2022/09/22 12:20:52;;;;;;;13.45;4.65;;;19.20;92.80;;;;;;4945104;28;20563;-92
2022/09/22 12:23:18;;;;;;;7.78;3.22;;;19.30;91.90;;;;;;4942479;28;20495;-92
2022/09/22 12:25:56;;;;;;;6.90;3.17;;;19.30;93.00;;;;;;4944865;28;20039;-90
2022/09/22 12:28:30;;;;;;;7.38;3.10;;;19.40;93.20;;;;;;4926878;29;20062;-89
2022/09/22 12:31:03;;;;;;;;;;;19.50;93.00;;;;;;4941294;28;20067;-91
2022/09/22 12:33:30;;;;;;;5.82;2.70;;;19.50;91.70;;;;;;4944020;29;20401;-92
2022/09/22 12:35:57;;;;;;;7.88;3.05;;;19.40;93.20;;;;;;4942972;28;20062;-91
2022/09/22 12:38:23;;;;;;;8.23;3.72;;;19.40;93.70;;;;;;4931733;29;20058;-91
2022/09/22 12:40:53;;;;;;;7.32;3.20;;;19.20;93.60;;;;;;4949615;29;20047;-90
2022/09/22 12:43:23;;;;;;;10.57;3.28;;;19.30;93.80;;;;;;4942494;29;20031;-88
2022/09/22 12:45:50;;;;;;;9.00;3.00;;;19.30;93.00;;;;;;4941348;28;20039;-88
2022/09/22 12:48:21;;;;;;;6.80;3.42;;;19.30;93.10;;;;;;4923960;29;20421;-88
2022/09/22 12:50:47;;;;;;;6.57;3.47;;;19.40;92.90;;;;;;4937590;29;20031;-88
2022/09/22 12:53:27;;;;;;;6.88;3.35;;;19.60;92.30;;;;;;4944945;29;20036;-89
2022/09/22 12:55:56;;;;;;;10.18;3.80;;;19.60;92.30;;;;;;4947740;29;20491;-89
2022/09/22 12:58:22;;;;;;;7.63;3.55;;;19.40;92.30;;;;;;4947420;28;20492;-90
2022/09/22 13:01:15;;;;;;;9.45;3.08;;;19.30;92.70;;;;;;4950568;28;20043;-90
2022/09/22 13:03:51;;;;;;;6.90;3.20;;;19.10;92.70;;;;;;4948095;28;20558;-89
2022/09/22 13:06:22;;;;;;;7.07;2.70;;;18.90;93.60;;;;;;4951977;28;20043;-89
2022/09/22 13:08:51;;;;;;;9.48;3.40;;;18.80;93.90;;;;;;4930135;29;20094;-88
2022/09/22 13:11:17;;;;;;;8.55;3.70;;;18.70;93.70;;;;;;4949512;28;20043;-88
2022/09/22 13:13:43;;;;;;;8.07;3.25;;;18.70;93.30;;;;;;4929784;29;20436;-88
2022/09/22 13:16:15;;;;;;;7.13;3.63;;;18.80;93.40;;;;;;4916782;29;20051;-90
2022/09/22 13:18:57;;;;;;;9.05;3.70;;;19.00;92.90;;;;;;4929776;28;20515;-89
2022/09/22 13:21:26;;;;;;;10.07;3.40;;;19.20;92.00;;;;;;4932221;28;20051;-89
2022/09/22 13:23:56;;;;;;;7.30;4.25;;;19.40;92.70;;;;;;4930158;29;20112;-90
2022/09/22 13:26:40;;;;;;;7.05;3.72;;;19.50;92.00;;;;;;4918857;29;20046;-93
2022/09/22 13:29:18;;;;;;;9.30;4.50;;;19.40;92.00;;;;;;4932506;29;20098;-88
2022/09/22 13:31:50;;;;;;;8.43;3.33;;;19.30;91.70;;;;;;4930606;29;20130;-94